createdAt,value
2023-07-18T00:00:38.415Z,37.36
2023-07-18T00:01:38.438Z,37.35
2023-07-18T00:02:38.405Z,37.39
2023-07-18T00:03:38.394Z,37.35
2023-07-18T00:04:38.430Z,37.34
2023-07-18T00:05:38.377Z,37.35
2023-07-18T00:06:38.348Z,37.37
2023-07-18T00:07:38.354Z,37.36
2023-07-18T00:08:38.350Z,37.36
2023-07-18T00:09:38.440Z,37.36
2023-07-18T00:10:38.339Z,37.34
2023-07-18T00:11:38.345Z,37.36
2023-07-18T00:12:38.323Z,37.38
2023-07-18T00:13:38.315Z,37.35
2023-07-18T00:14:38.322Z,37.40
2023-07-18T00:15:38.305Z,37.35
2023-07-18T00:16:38.391Z,37.39
2023-07-18T00:17:38.308Z,37.35
2023-07-18T00:18:38.269Z,37.35
2023-07-18T00:19:38.271Z,37.37
2023-07-18T00:20:38.265Z,37.32
2023-07-18T00:21:38.252Z,37.36
2023-07-18T00:22:38.388Z,37.39
2023-07-18T00:23:38.231Z,37.35
2023-07-18T00:24:38.257Z,37.36
2023-07-18T00:25:38.267Z,37.32
2023-07-18T00:26:38.218Z,37.36
2023-07-18T00:27:38.266Z,37.39
2023-07-18T00:28:38.218Z,37.35
2023-07-18T00:29:38.213Z,37.35
2023-07-18T00:30:38.222Z,37.34
2023-07-18T00:31:38.214Z,37.35
2023-07-18T00:32:38.224Z,37.35
2023-07-18T00:33:38.202Z,37.36
2023-07-18T00:34:38.200Z,37.37
2023-07-18T00:35:38.264Z,37.41
2023-07-18T00:36:38.170Z,37.40
2023-07-18T00:37:38.170Z,37.37
2023-07-18T00:38:38.167Z,37.39
2023-07-18T00:39:38.164Z,37.37
2023-07-18T00:40:38.145Z,37.37
2023-07-18T00:41:38.133Z,37.41
2023-07-18T00:42:38.119Z,37.36
2023-07-18T00:43:38.124Z,37.38
2023-07-18T00:44:38.148Z,37.37
2023-07-18T00:45:38.131Z,37.38
2023-07-18T00:46:38.241Z,37.35
2023-07-18T00:47:38.854Z,37.40
2023-07-18T00:49:56.667Z,37.38
2023-07-18T00:50:56.662Z,37.39
2023-07-18T00:51:56.619Z,37.43
2023-07-18T00:52:56.627Z,37.40
2023-07-18T00:53:56.636Z,37.37
2023-07-18T00:54:56.602Z,37.36
2023-07-18T00:55:56.611Z,37.38
2023-07-18T00:56:56.622Z,37.37
2023-07-18T00:57:56.604Z,37.34
2023-07-18T00:58:56.592Z,37.38
2023-07-18T00:59:56.572Z,37.35
2023-07-18T01:00:56.628Z,37.36
2023-07-18T01:01:56.564Z,37.33
2023-07-18T01:02:56.666Z,37.37
2023-07-18T01:03:56.568Z,37.36
2023-07-18T01:04:56.553Z,37.36
2023-07-18T01:05:56.540Z,37.36
2023-07-18T01:06:56.602Z,37.40
2023-07-18T01:07:56.514Z,37.36
2023-07-18T01:08:56.521Z,37.35
2023-07-18T01:09:56.519Z,37.36
2023-07-18T01:10:56.505Z,37.34
2023-07-18T01:11:56.545Z,37.33
2023-07-18T01:12:56.485Z,37.30
2023-07-18T01:13:56.489Z,37.34
2023-07-18T01:14:56.507Z,37.38
2023-07-18T01:15:56.504Z,37.34
2023-07-18T01:16:56.449Z,37.34
2023-07-18T01:17:56.534Z,37.34
2023-07-18T01:18:56.467Z,37.33
2023-07-18T01:19:56.443Z,37.30
2023-07-18T01:20:56.431Z,37.30
2023-07-18T01:21:56.418Z,37.38
2023-07-18T01:22:56.423Z,37.33
2023-07-18T01:23:56.414Z,37.36
2023-07-18T01:24:56.402Z,37.31
2023-07-18T01:25:56.399Z,37.33
2023-07-18T01:26:56.386Z,37.37
2023-07-18T01:27:56.386Z,37.37
2023-07-18T01:28:56.361Z,37.37
2023-07-18T01:29:56.360Z,37.32
2023-07-18T01:30:56.392Z,37.36
2023-07-18T01:31:56.356Z,37.34
2023-07-18T01:32:56.444Z,37.34
2023-07-18T01:33:56.354Z,37.34
2023-07-18T01:34:56.341Z,37.31
2023-07-18T01:35:56.842Z,37.30
2023-07-18T01:36:56.309Z,37.30
2023-07-18T01:37:56.312Z,37.33
2023-07-18T01:38:56.297Z,37.30
2023-07-18T01:39:56.324Z,37.33
2023-07-18T01:40:56.300Z,37.34
2023-07-18T01:41:56.292Z,37.34
2023-07-18T01:42:56.335Z,37.33
2023-07-18T01:43:56.265Z,37.30
2023-07-18T01:44:56.335Z,37.30
2023-07-18T01:45:56.257Z,37.33
2023-07-18T01:46:56.336Z,37.30
2023-07-18T01:47:56.278Z,37.33
2023-07-18T01:48:56.254Z,37.34
2023-07-18T01:49:56.235Z,37.30
2023-07-18T01:50:56.239Z,37.31
2023-07-18T01:51:56.205Z,37.33
2023-07-18T01:52:56.221Z,37.29
2023-07-18T01:53:56.188Z,37.31
2023-07-18T01:54:56.186Z,37.31
2023-07-18T01:55:56.189Z,37.29
2023-07-18T01:56:56.190Z,37.30
2023-07-18T01:57:56.177Z,37.27
2023-07-18T01:58:56.153Z,37.30
2023-07-18T01:59:56.152Z,37.28
2023-07-18T02:00:56.178Z,37.30
2023-07-18T02:01:56.173Z,37.33
2023-07-18T02:02:56.342Z,37.27
2023-07-18T02:03:56.126Z,37.30
2023-07-18T02:04:56.123Z,37.30
2023-07-18T02:05:56.101Z,37.28
2023-07-18T02:06:56.098Z,37.28
2023-07-18T02:07:56.093Z,37.31
2023-07-18T02:08:56.073Z,37.30
2023-07-18T02:09:56.108Z,37.28
2023-07-18T02:10:56.070Z,37.34
2023-07-18T02:11:56.063Z,37.28
2023-07-18T02:12:56.042Z,37.26
2023-07-18T02:13:56.042Z,37.27
2023-07-18T02:14:56.040Z,37.22
2023-07-18T02:15:56.020Z,37.28
2023-07-18T02:16:56.059Z,37.27
2023-07-18T02:17:56.136Z,37.22
2023-07-18T02:18:56.000Z,37.27
2023-07-18T02:19:56.014Z,37.25
2023-07-18T02:20:56.012Z,37.25
2023-07-18T02:21:55.994Z,37.25
2023-07-18T02:22:55.984Z,37.27
2023-07-18T02:23:55.994Z,37.23
2023-07-18T02:24:55.978Z,37.19
2023-07-18T02:25:55.973Z,37.26
2023-07-18T02:26:55.962Z,37.23
2023-07-18T02:27:55.932Z,37.25
2023-07-18T02:28:55.932Z,37.27
2023-07-18T02:29:55.924Z,37.25
2023-07-18T02:30:55.936Z,37.20
2023-07-18T02:31:55.905Z,37.25
2023-07-18T02:32:56.068Z,37.19
2023-07-18T02:33:55.919Z,37.25
2023-07-18T02:34:55.920Z,37.27
2023-07-18T02:35:55.907Z,37.24
2023-07-18T02:36:55.891Z,37.28
2023-07-18T02:37:55.875Z,37.22
2023-07-18T02:38:55.881Z,37.22
2023-07-18T02:39:55.869Z,37.25
2023-07-18T02:40:55.866Z,37.22
2023-07-18T02:41:55.861Z,37.25
2023-07-18T02:42:55.854Z,37.24
2023-07-18T02:43:55.837Z,37.23
2023-07-18T02:44:55.827Z,37.19
2023-07-18T02:45:55.825Z,37.20
2023-07-18T02:46:55.802Z,37.19
2023-07-18T02:47:55.874Z,37.20
2023-07-18T02:48:55.803Z,37.18
2023-07-18T02:49:55.791Z,37.20
2023-07-18T02:50:55.798Z,37.12
2023-07-18T02:51:55.775Z,37.17
2023-07-18T02:52:55.772Z,37.15
2023-07-18T02:53:55.775Z,37.10
2023-07-18T02:54:55.787Z,37.15
2023-07-18T02:55:55.746Z,37.16
2023-07-18T02:56:55.755Z,37.15
2023-07-18T02:57:55.723Z,37.16
2023-07-18T02:58:55.741Z,37.15
2023-07-18T02:59:55.731Z,37.15
2023-07-18T03:00:55.725Z,37.07
2023-07-18T03:01:55.765Z,37.10
2023-07-18T03:02:55.822Z,37.06
2023-07-18T03:03:55.818Z,37.10
2023-07-18T03:04:55.689Z,37.06
2023-07-18T03:05:55.692Z,37.02
2023-07-18T03:06:55.689Z,37.06
2023-07-18T03:07:55.673Z,37.06
2023-07-18T03:08:55.660Z,37.05
2023-07-18T03:09:55.635Z,37.03
2023-07-18T03:10:55.665Z,37.01
2023-07-18T03:11:55.653Z,37.03
2023-07-18T03:12:55.621Z,37.01
2023-07-18T03:13:55.656Z,36.98
2023-07-18T03:14:55.611Z,37.01
2023-07-18T03:15:55.599Z,36.99
2023-07-18T03:16:55.602Z,37.05
2023-07-18T03:17:55.632Z,36.99
2023-07-18T03:18:55.597Z,37.02
2023-07-18T03:19:55.579Z,36.99
2023-07-18T03:20:55.575Z,37.02
2023-07-18T03:21:55.569Z,37.02
2023-07-18T03:22:55.595Z,36.97
2023-07-18T03:23:55.562Z,36.98
2023-07-18T03:24:55.582Z,36.99
2023-07-18T03:25:55.562Z,36.97
2023-07-18T03:26:55.545Z,36.96
2023-07-18T03:27:55.533Z,36.94
2023-07-18T03:28:55.531Z,36.98
2023-07-18T03:29:55.532Z,36.97
2023-07-18T03:30:55.549Z,36.95
2023-07-18T03:31:55.593Z,36.96
2023-07-18T03:32:55.615Z,36.98
2023-07-18T03:33:55.588Z,36.94
2023-07-18T03:34:55.658Z,36.90
2023-07-18T03:35:55.588Z,36.87
2023-07-18T03:36:55.588Z,36.90
2023-07-18T03:37:55.625Z,36.89
2023-07-18T03:38:55.606Z,36.90
2023-07-18T03:39:55.631Z,36.86
2023-07-18T03:40:55.643Z,36.90
2023-07-18T03:41:55.645Z,36.87
2023-07-18T03:42:55.659Z,36.86
2023-07-18T03:43:55.678Z,36.87
2023-07-18T03:44:55.700Z,36.86
2023-07-18T03:45:55.735Z,36.82
2023-07-18T03:47:02.478Z,36.80
2023-07-18T03:47:56.749Z,36.86
2023-07-18T03:48:55.776Z,36.82
2023-07-18T03:49:55.703Z,36.84
2023-07-18T03:50:55.712Z,36.76
2023-07-18T03:51:55.681Z,36.81
2023-07-18T03:52:55.682Z,36.78
2023-07-18T03:53:55.690Z,36.81
2023-07-18T03:54:55.671Z,36.80
2023-07-18T03:55:57.534Z,36.75
2023-07-18T03:56:55.653Z,36.78
2023-07-18T03:57:55.639Z,36.76
2023-07-18T03:58:55.638Z,36.80
2023-07-18T03:59:55.657Z,36.81
2023-07-18T04:00:55.611Z,36.81
2023-07-18T04:01:55.631Z,36.69
2023-07-18T04:02:55.699Z,36.70
2023-07-18T04:03:55.632Z,36.75
2023-07-18T04:04:55.582Z,36.75
2023-07-18T04:05:55.570Z,36.77
2023-07-18T04:06:55.560Z,36.76
2023-07-18T04:07:55.576Z,36.71
2023-07-18T04:08:55.650Z,36.71
2023-07-18T04:09:55.569Z,36.70
2023-07-18T04:10:55.547Z,36.69
2023-07-18T04:11:55.581Z,36.72
2023-07-18T04:12:55.587Z,36.71
2023-07-18T04:13:55.616Z,36.72
2023-07-18T04:14:55.649Z,36.74
2023-07-18T04:15:55.706Z,36.67
2023-07-18T04:16:55.687Z,36.67
2023-07-18T04:17:55.746Z,36.68
2023-07-18T04:18:55.715Z,36.67
2023-07-18T04:19:55.820Z,36.65
2023-07-18T04:20:55.762Z,36.57
2023-07-18T04:21:55.789Z,36.65
2023-07-18T04:22:55.841Z,36.65
2023-07-18T04:23:55.808Z,36.65
2023-07-18T04:24:55.840Z,36.61
2023-07-18T04:25:55.865Z,36.58
2023-07-18T04:26:55.886Z,36.54
2023-07-18T04:27:55.901Z,36.61
2023-07-18T04:28:55.931Z,36.56
2023-07-18T04:29:55.942Z,36.54
2023-07-18T04:30:55.957Z,36.59
2023-07-18T04:31:56.039Z,36.57
2023-07-18T04:32:55.989Z,36.57
2023-07-18T04:33:56.012Z,36.54
2023-07-18T04:34:56.020Z,36.56
2023-07-18T04:35:56.023Z,36.52
2023-07-18T04:36:56.036Z,36.56
2023-07-18T04:37:56.068Z,36.54
2023-07-18T04:38:56.081Z,36.54
2023-07-18T04:39:56.097Z,36.50
2023-07-18T04:40:56.095Z,36.50
2023-07-18T04:41:56.299Z,36.49
2023-07-18T04:42:56.141Z,36.48
2023-07-18T04:43:56.144Z,36.46
2023-07-18T04:44:56.148Z,36.48
2023-07-18T04:45:56.252Z,36.41
2023-07-18T04:46:56.229Z,36.50
2023-07-18T04:47:56.290Z,36.47
2023-07-18T04:48:56.260Z,36.50
2023-07-18T04:49:56.282Z,36.46
2023-07-18T04:50:56.273Z,36.49
2023-07-18T04:51:56.266Z,36.40
2023-07-18T04:52:56.293Z,36.38
2023-07-18T04:53:56.315Z,36.38
2023-07-18T04:54:56.356Z,36.43
2023-07-18T04:55:56.313Z,36.40
2023-07-18T04:56:56.352Z,36.43
2023-07-18T04:57:56.352Z,36.41
2023-07-18T04:58:56.388Z,36.41
2023-07-18T04:59:56.409Z,36.41
2023-07-18T05:00:56.743Z,36.44
2023-07-18T05:01:56.526Z,36.41
2023-07-18T05:02:56.442Z,36.41
2023-07-18T05:03:58.258Z,36.36
2023-07-18T05:04:56.479Z,36.30
2023-07-18T05:05:56.477Z,36.32
2023-07-18T05:06:56.511Z,36.35
2023-07-18T05:07:56.546Z,36.36
2023-07-18T05:08:56.591Z,36.37
2023-07-18T05:09:56.569Z,36.32
2023-07-18T05:10:56.585Z,36.32
2023-07-18T05:11:56.618Z,36.31
2023-07-18T05:12:56.637Z,36.32
2023-07-18T05:13:56.630Z,36.32
2023-07-18T05:14:56.698Z,36.33
2023-07-18T05:15:56.695Z,36.24
2023-07-18T05:16:56.710Z,36.27
2023-07-18T05:17:56.744Z,36.22
2023-07-18T05:18:56.736Z,36.23
2023-07-18T05:19:56.754Z,36.18
2023-07-18T05:20:56.773Z,36.19
2023-07-18T05:21:56.781Z,36.17
2023-07-18T05:22:56.868Z,36.14
2023-07-18T05:23:56.795Z,36.11
2023-07-18T05:24:56.849Z,36.10
2023-07-18T05:25:56.842Z,36.08
2023-07-18T05:26:56.879Z,36.05
2023-07-18T05:27:56.887Z,36.03
2023-07-18T05:28:56.921Z,36.03
2023-07-18T05:29:56.945Z,35.98
2023-07-18T05:30:56.949Z,35.99
2023-07-18T05:31:57.038Z,36.00
2023-07-18T05:32:57.043Z,36.00
2023-07-18T05:33:57.003Z,35.91
2023-07-18T05:34:57.006Z,35.91
2023-07-18T05:35:57.052Z,35.92
2023-07-18T05:36:57.024Z,35.89
2023-07-18T05:37:57.073Z,35.90
2023-07-18T05:38:57.075Z,35.83
2023-07-18T05:39:57.103Z,35.82
2023-07-18T05:40:57.108Z,35.76
2023-07-18T05:41:57.117Z,35.80
2023-07-18T05:42:57.132Z,35.76
2023-07-18T05:43:57.128Z,35.77
2023-07-18T05:44:57.170Z,35.68
2023-07-18T05:45:57.212Z,35.71
2023-07-18T05:46:57.166Z,35.70
2023-07-18T05:47:57.225Z,35.61
2023-07-18T05:48:57.202Z,35.58
2023-07-18T05:49:57.246Z,35.57
2023-07-18T05:50:57.212Z,35.58
2023-07-18T05:51:57.239Z,35.53
2023-07-18T05:52:57.245Z,35.57
2023-07-18T05:53:57.236Z,35.53
2023-07-18T05:54:57.333Z,35.55
2023-07-18T05:55:57.286Z,35.48
2023-07-18T05:56:57.295Z,35.43
2023-07-18T05:57:57.273Z,35.51
2023-07-18T05:58:57.328Z,35.42
2023-07-18T05:59:57.330Z,35.41
2023-07-18T06:00:57.335Z,35.41
2023-07-18T06:01:57.313Z,35.44
2023-07-18T06:02:58.874Z,35.46
2023-07-18T06:03:57.390Z,35.39
2023-07-18T06:04:57.314Z,35.35
2023-07-18T06:05:57.323Z,35.34
2023-07-18T06:06:57.345Z,35.36
2023-07-18T06:07:57.326Z,35.32
2023-07-18T06:08:57.345Z,35.29
2023-07-18T06:09:57.387Z,35.32
2023-07-18T06:10:57.335Z,35.36
2023-07-18T06:11:57.351Z,35.31
2023-07-18T06:12:57.377Z,35.30
2023-07-18T06:13:57.358Z,35.33
2023-07-18T06:14:57.352Z,35.28
2023-07-18T06:15:57.369Z,35.33
2023-07-18T06:16:57.406Z,35.32
2023-07-18T06:17:57.403Z,35.33
2023-07-18T06:18:57.356Z,35.33
2023-07-18T06:19:57.354Z,35.35
2023-07-18T06:20:57.360Z,35.33
2023-07-18T06:21:57.364Z,35.35
2023-07-18T06:22:57.424Z,35.32
2023-07-18T06:24:12.740Z,35.37
2023-07-18T06:24:58.352Z,35.30
2023-07-18T06:25:57.490Z,35.30
2023-07-18T06:26:57.323Z,35.28
2023-07-18T06:27:57.337Z,35.32
2023-07-18T06:28:57.347Z,35.32
2023-07-18T06:29:57.321Z,35.32
2023-07-18T06:30:57.385Z,35.31
2023-07-18T06:31:57.300Z,35.32
2023-07-18T06:32:57.358Z,35.31
2023-07-18T06:33:57.278Z,35.35
2023-07-18T06:35:00.683Z,35.31
2023-07-18T06:35:58.309Z,35.37
2023-07-18T06:36:57.265Z,35.31
2023-07-18T06:37:57.265Z,35.30
2023-07-18T06:38:57.277Z,35.28
2023-07-18T06:39:57.251Z,35.27
2023-07-18T06:40:57.245Z,35.25
2023-07-18T06:41:57.252Z,35.30
2023-07-18T06:42:57.249Z,35.32
2023-07-18T06:43:57.257Z,35.27
2023-07-18T06:44:57.218Z,35.25
2023-07-18T06:45:57.220Z,35.28
2023-07-18T06:46:57.271Z,35.27
2023-07-18T06:47:57.288Z,35.28
2023-07-18T06:48:57.188Z,35.23
2023-07-18T06:49:57.182Z,35.24
2023-07-18T06:50:57.177Z,35.31
2023-07-18T06:51:57.164Z,35.28
2023-07-18T06:52:57.161Z,35.26
2023-07-18T06:53:57.139Z,35.29
2023-07-18T06:54:57.133Z,35.35
2023-07-18T06:55:57.158Z,35.30
2023-07-18T06:56:57.130Z,35.25
2023-07-18T06:57:57.142Z,35.38
2023-07-18T06:58:57.110Z,35.30
2023-07-18T06:59:57.136Z,35.33
2023-07-18T07:00:57.149Z,35.29
2023-07-18T07:01:57.093Z,35.32
2023-07-18T07:02:57.208Z,35.32
2023-07-18T07:03:57.269Z,35.33
2023-07-18T07:04:57.064Z,35.33
2023-07-18T07:05:57.078Z,35.32
2023-07-18T07:06:57.052Z,35.26
2023-07-18T07:07:57.062Z,35.27
2023-07-18T07:08:57.033Z,35.27
2023-07-18T07:09:57.039Z,35.28
2023-07-18T07:10:57.038Z,35.25
2023-07-18T07:11:57.014Z,35.30
2023-07-18T07:12:58.313Z,35.26
2023-07-18T07:13:57.047Z,35.25
2023-07-18T07:14:57.010Z,35.31
2023-07-18T07:15:57.015Z,35.28
2023-07-18T07:16:57.020Z,35.32
2023-07-18T07:17:57.052Z,35.32
2023-07-18T07:18:56.996Z,35.25
2023-07-18T07:19:56.990Z,35.30
2023-07-18T07:20:56.989Z,35.24
2023-07-18T07:21:56.949Z,35.30
2023-07-18T07:22:56.962Z,35.29
2023-07-18T07:23:58.110Z,35.30
2023-07-18T07:24:56.947Z,35.35
2023-07-18T07:25:56.966Z,35.34
2023-07-18T07:26:56.911Z,35.29
2023-07-18T07:27:56.944Z,35.33
2023-07-18T07:28:56.952Z,35.29
2023-07-18T07:29:56.914Z,35.30
2023-07-18T07:30:56.945Z,35.28
2023-07-18T07:31:56.880Z,35.24
2023-07-18T07:32:56.957Z,35.32
2023-07-18T07:33:56.882Z,35.28
2023-07-18T07:34:56.859Z,35.28
2023-07-18T07:35:56.889Z,35.23
2023-07-18T07:36:56.899Z,35.30
2023-07-18T07:37:56.892Z,35.29
2023-07-18T07:38:56.920Z,35.31
2023-07-18T07:39:56.901Z,35.33
2023-07-18T07:40:56.917Z,35.35
2023-07-18T07:41:56.889Z,35.25
2023-07-18T07:42:56.889Z,35.29
2023-07-18T07:43:56.928Z,35.24
2023-07-18T07:44:57.450Z,35.31
2023-07-18T07:45:56.970Z,35.28
2023-07-18T07:46:56.966Z,35.28
2023-07-18T07:47:56.916Z,35.22
2023-07-18T07:48:56.910Z,35.22
2023-07-18T07:49:56.922Z,35.22
2023-07-18T07:50:56.951Z,35.26
2023-07-18T07:51:56.913Z,35.27
2023-07-18T07:52:56.925Z,35.22
2023-07-18T07:53:56.917Z,35.22
2023-07-18T07:54:56.956Z,35.24
2023-07-18T07:55:56.954Z,35.24
2023-07-18T07:56:56.956Z,35.29
2023-07-18T07:57:56.948Z,35.22
2023-07-18T07:59:10.440Z,35.26
2023-07-18T07:59:57.929Z,35.22
2023-07-18T08:00:56.969Z,35.21
2023-07-18T08:01:56.990Z,35.21
2023-07-18T08:02:56.945Z,35.20
2023-07-18T08:03:56.960Z,35.22
2023-07-18T08:04:56.949Z,35.28
2023-07-18T08:05:56.925Z,35.26
2023-07-18T08:06:56.872Z,35.20
2023-07-18T08:07:56.882Z,35.22
2023-07-18T08:08:56.867Z,35.24
2023-07-18T08:09:56.867Z,35.19
2023-07-18T08:10:56.875Z,35.19
2023-07-18T08:11:56.838Z,35.19
2023-07-18T08:12:56.841Z,35.20
2023-07-18T08:13:56.944Z,35.20
2023-07-18T08:14:56.848Z,35.24
2023-07-18T08:15:56.859Z,35.21
2023-07-18T08:16:56.808Z,35.19
2023-07-18T08:17:56.888Z,35.19
2023-07-18T08:18:56.786Z,35.18
2023-07-18T08:19:56.803Z,35.20
2023-07-18T08:20:56.784Z,35.19
2023-07-18T08:21:56.937Z,35.16
2023-07-18T08:22:56.871Z,35.15
2023-07-18T08:23:56.766Z,35.18
2023-07-18T08:24:56.814Z,35.18
2023-07-18T08:25:56.750Z,35.17
2023-07-18T08:26:56.755Z,35.20
2023-07-18T08:27:56.745Z,35.19
2023-07-18T08:28:56.746Z,35.20
2023-07-18T08:29:56.735Z,35.19
2023-07-18T08:30:56.745Z,35.17
2023-07-18T08:31:56.730Z,35.19
2023-07-18T08:32:56.738Z,35.27
2023-07-18T08:33:56.796Z,35.30
2023-07-18T08:34:56.691Z,35.26
2023-07-18T08:35:56.705Z,35.20
2023-07-18T08:36:56.705Z,35.24
2023-07-18T08:37:56.700Z,35.23
2023-07-18T08:38:56.717Z,35.19
2023-07-18T08:39:56.728Z,35.23
